Time;durP1;ratioP1;P1;durP2;ratioP2;P2;SDS_P1;SDS_P2;PMS_P1;PMS_P2;Temp;Humidity;BMP_temperature;BMP_pressure;BME280_temperature;BME280_humidity;BME280_pressure;Samples;Min_cycle;Max_cycle;Signal;HPM_P1;HPM_P2
2021/05/08 00:00:04;;;;;;;6.53;4.43;;;3.10;99.90;;;;;;5076462;28;20519;-83
2021/05/08 00:02:30;;;;;;;7.00;4.87;;;3.10;99.90;;;;;;5058285;28;20638;-83
2021/05/08 00:04:56;;;;;;;7.30;4.67;;;3.10;99.90;;;;;;5075843;28;20454;-83
2021/05/08 00:07:21;;;;;;;7.10;4.00;;;3.20;99.90;;;;;;5075949;28;20184;-83
2021/05/08 00:09:47;;;;;;;7.23;5.17;;;3.00;99.90;;;;;;5068536;28;20329;-82
2021/05/08 00:12:13;;;;;;;5.37;4.70;;;3.00;99.90;;;;;;5080611;28;20176;-83
2021/05/08 00:14:38;;;;;;;5.03;4.47;;;3.00;99.90;;;;;;5083748;28;20175;-83
2021/05/08 00:17:06;;;;;;;5.10;4.60;;;3.00;99.90;;;;;;5076110;28;20185;-83
2021/05/08 00:19:32;;;;;;;4.93;4.27;;;3.00;99.90;;;;;;5061365;28;20643;-83
2021/05/08 00:21:58;;;;;;;8.97;5.00;;;3.00;99.90;;;;;;5060254;28;20540;-83
2021/05/08 00:24:23;;;;;;;7.77;5.10;;;3.00;99.90;;;;;;5061528;28;20208;-83
2021/05/08 00:26:49;;;;;;;4.87;4.17;;;3.00;99.90;;;;;;5061542;28;20236;-83
2021/05/08 00:29:15;;;;;;;6.03;5.07;;;2.90;99.90;;;;;;5079603;28;20172;-83
2021/05/08 00:31:41;;;;;;;8.67;4.67;;;2.90;99.90;;;;;;5080392;28;20247;-83
2021/05/08 00:34:07;;;;;;;5.87;4.77;;;3.00;99.90;;;;;;5060804;28;20423;-84
2021/05/08 00:36:36;;;;;;;5.20;4.17;;;2.90;99.90;;;;;;5061339;28;20576;-83
2021/05/08 00:39:04;;;;;;;5.90;4.63;;;2.90;99.90;;;;;;5061617;28;20331;-83
2021/05/08 00:41:30;;;;;;;5.67;4.30;;;2.80;99.90;;;;;;5061631;28;20971;-83
2021/05/08 00:43:59;;;;;;;4.83;4.13;;;2.80;99.90;;;;;;5061427;28;20454;-83
2021/05/08 00:46:26;;;;;;;6.63;4.17;;;2.80;99.90;;;;;;5061491;28;20708;-83
2021/05/08 00:48:55;;;;;;;5.80;4.63;;;2.70;99.90;;;;;;5061809;28;20419;-83
2021/05/08 00:51:21;;;;;;;5.30;4.03;;;2.70;99.90;;;;;;5079258;28;20427;-83
2021/05/08 00:53:47;;;;;;;5.43;4.63;;;2.60;99.90;;;;;;5061219;28;20473;-83
2021/05/08 00:56:13;;;;;;;5.23;4.43;;;2.70;99.90;;;;;;5061488;28;20274;-83
2021/05/08 00:58:39;;;;;;;5.70;3.47;;;2.70;99.90;;;;;;5062053;28;20181;-83
2021/05/08 01:01:06;;;;;;;4.37;3.97;;;2.60;99.90;;;;;;5061581;28;20900;-83
2021/05/08 01:03:31;;;;;;;4.30;3.90;;;2.60;99.90;;;;;;5061198;28;20219;-83
2021/05/08 01:05:57;;;;;;;4.10;3.70;;;2.70;99.90;;;;;;5060914;28;20486;-83
2021/05/08 01:08:24;;;;;;;4.57;3.90;;;2.60;99.90;;;;;;5080099;28;20191;-83
2021/05/08 01:10:51;;;;;;;4.80;3.57;;;2.50;99.90;;;;;;5079919;28;20597;-83
2021/05/08 01:13:16;;;;;;;4.83;3.47;;;2.60;99.90;;;;;;5080360;28;20404;-83
2021/05/08 01:15:42;;;;;;;4.47;3.57;;;2.40;99.90;;;;;;5079364;28;20422;-83
2021/05/08 01:18:09;;;;;;;3.80;3.50;;;2.50;99.90;;;;;;5061606;28;20242;-83
2021/05/08 01:20:34;;;;;;;5.47;3.70;;;2.50;99.90;;;;;;5079606;28;20438;-83
2021/05/08 01:23:00;;;;;;;3.60;2.97;;;2.60;99.90;;;;;;5061877;28;20403;-83
2021/05/08 01:25:28;;;;;;;4.00;3.60;;;2.50;99.90;;;;;;5061086;28;20226;-83
2021/05/08 01:27:59;;;;;;;3.43;3.00;;;2.50;99.90;;;;;;5061451;28;20196;-83
2021/05/08 01:30:27;;;;;;;3.50;3.20;;;2.40;99.90;;;;;;5061331;28;20469;-83
2021/05/08 01:32:53;;;;;;;5.50;3.60;;;2.40;99.90;;;;;;5079539;28;20411;-83
2021/05/08 01:35:19;;;;;;;3.83;3.20;;;2.40;99.90;;;;;;5061568;28;20433;-83
2021/05/08 01:37:46;;;;;;;5.23;4.47;;;2.40;99.90;;;;;;5080426;28;20733;-83
2021/05/08 01:40:13;;;;;;;7.17;5.53;;;2.40;99.90;;;;;;5061992;28;20201;-83
2021/05/08 01:42:40;;;;;;;9.70;6.23;;;2.40;99.90;;;;;;5061889;28;20411;-83
2021/05/08 01:45:14;;;;;;;11.70;8.27;;;2.40;99.90;;;;;;5061402;28;20545;-83
2021/05/08 01:47:40;;;;;;;13.53;9.00;;;2.40;99.90;;;;;;5080834;28;20411;-83
2021/05/08 01:50:09;;;;;;;31.93;18.87;;;2.30;99.90;;;;;;5080516;28;20826;-83
2021/05/08 01:52:35;;;;;;;20.00;12.93;;;2.30;99.90;;;;;;5062028;28;20950;-83
2021/05/08 01:55:04;;;;;;;48.03;26.33;;;2.20;99.90;;;;;;5062022;28;20419;-83
2021/05/08 01:57:30;;;;;;;39.93;23.93;;;2.30;99.90;;;;;;5080779;28;20407;-83
2021/05/08 01:59:56;;;;;;;19.93;14.93;;;2.30;99.90;;;;;;5079729;28;20414;-83
2021/05/08 02:02:21;;;;;;;8.17;6.90;;;2.30;99.90;;;;;;5079881;28;20172;-83
2021/05/08 02:04:48;;;;;;;5.30;4.80;;;2.20;99.90;;;;;;5080278;28;20201;-84
2021/05/08 02:07:13;;;;;;;6.87;5.00;;;2.20;99.90;;;;;;5080868;28;20168;-83
2021/05/08 02:09:39;;;;;;;4.67;4.17;;;2.20;99.90;;;;;;5062113;28;20416;-83
2021/05/08 02:12:05;;;;;;;7.03;4.63;;;2.20;99.90;;;;;;5079893;28;20192;-83
2021/05/08 02:14:31;;;;;;;6.10;4.50;;;2.20;99.90;;;;;;5062385;28;20248;-83
2021/05/08 02:16:56;;;;;;;5.60;4.70;;;2.20;99.90;;;;;;5080416;28;20438;-83
2021/05/08 02:19:22;;;;;;;6.13;4.33;;;2.20;99.90;;;;;;5062299;28;20180;-83
2021/05/08 02:21:48;;;;;;;5.30;4.30;;;2.10;99.90;;;;;;5079665;28;20231;-83
2021/05/08 02:24:14;;;;;;;5.70;4.67;;;2.00;99.90;;;;;;5061161;28;20208;-84
2021/05/08 02:26:39;;;;;;;5.37;4.67;;;2.00;99.90;;;;;;5079515;28;20180;-83
2021/05/08 02:29:05;;;;;;;7.97;5.07;;;2.00;99.90;;;;;;5080558;28;20395;-83
2021/05/08 02:31:30;;;;;;;6.63;4.07;;;1.90;99.90;;;;;;5062637;28;20193;-83
2021/05/08 02:33:56;;;;;;;5.30;4.73;;;2.00;99.90;;;;;;5080281;28;20179;-83
2021/05/08 02:36:22;;;;;;;4.73;4.23;;;1.90;99.90;;;;;;5062414;28;20204;-83
2021/05/08 02:38:47;;;;;;;5.10;4.03;;;1.80;99.90;;;;;;5062240;28;20196;-83
2021/05/08 02:41:13;;;;;;;7.13;4.23;;;1.80;99.90;;;;;;5062380;28;20212;-83
2021/05/08 02:43:39;;;;;;;6.30;4.80;;;1.70;99.90;;;;;;5079332;28;20179;-83
2021/05/08 02:46:05;;;;;;;6.17;4.37;;;1.70;99.90;;;;;;5061608;28;20323;-83
2021/05/08 02:48:30;;;;;;;5.67;4.60;;;1.60;99.90;;;;;;5062155;28;20924;-83
2021/05/08 02:50:56;;;;;;;5.40;4.10;;;1.60;99.90;;;;;;5061568;28;20215;-83
2021/05/08 02:53:22;;;;;;;7.17;3.70;;;1.60;99.90;;;;;;5061693;28;20177;-83
2021/05/08 02:55:47;;;;;;;5.03;4.07;;;1.60;99.90;;;;;;5079200;28;20180;-83
2021/05/08 02:58:13;;;;;;;5.83;4.33;;;1.60;99.90;;;;;;5061365;28;20177;-83
2021/05/08 03:00:38;;;;;;;6.60;4.57;;;1.70;99.90;;;;;;5078701;28;20196;-83
2021/05/08 03:03:04;;;;;;;9.23;4.07;;;1.70;99.90;;;;;;5078956;28;20173;-83
2021/05/08 03:05:30;;;;;;;6.20;4.07;;;1.60;99.90;;;;;;5077811;28;20205;-83
2021/05/08 03:07:55;;;;;;;3.90;3.37;;;1.70;99.90;;;;;;5060164;28;20172;-83
2021/05/08 03:10:21;;;;;;;4.57;3.50;;;1.50;99.90;;;;;;5059919;28;20196;-83
2021/05/08 03:12:47;;;;;;;6.03;3.60;;;1.60;99.90;;;;;;5059735;28;20165;-83
2021/05/08 03:15:13;;;;;;;3.93;3.30;;;1.70;99.90;;;;;;5077578;28;20535;-83
2021/05/08 03:17:39;;;;;;;5.00;3.70;;;1.60;99.90;;;;;;5059235;28;20181;-83
2021/05/08 03:20:05;;;;;;;5.10;3.43;;;1.70;99.90;;;;;;5059071;28;20454;-83
2021/05/08 03:22:30;;;;;;;3.80;3.37;;;1.60;99.90;;;;;;5059469;28;20199;-83
2021/05/08 03:24:56;;;;;;;4.50;3.10;;;1.60;99.90;;;;;;5087911;28;20451;-83
2021/05/08 03:27:22;;;;;;;3.93;3.53;;;1.60;99.90;;;;;;5080477;28;20221;-82
2021/05/08 03:29:48;;;;;;;2.93;2.60;;;1.60;99.90;;;;;;5083938;28;20204;-83
2021/05/08 03:32:13;;;;;;;4.20;3.43;;;1.60;99.90;;;;;;5078767;28;20189;-83
2021/05/08 03:34:39;;;;;;;4.93;2.93;;;1.60;99.90;;;;;;5062097;28;20179;-83
2021/05/08 03:37:05;;;;;;;3.10;2.73;;;1.60;99.90;;;;;;5080327;28;20200;-83
2021/05/08 03:39:30;;;;;;;3.67;3.00;;;1.60;99.90;;;;;;5061714;28;20641;-83
2021/05/08 03:41:56;;;;;;;3.67;2.70;;;1.80;99.90;;;;;;5062416;28;20197;-83
2021/05/08 03:44:22;;;;;;;3.50;3.20;;;1.70;99.90;;;;;;5061962;28;20255;-83
2021/05/08 03:46:47;;;;;;;3.67;2.90;;;1.60;99.90;;;;;;5062034;28;20177;-83
2021/05/08 03:49:13;;;;;;;4.40;2.57;;;1.60;99.90;;;;;;5061943;28;20173;-83
2021/05/08 03:51:39;;;;;;;5.47;2.73;;;1.60;99.90;;;;;;5062527;28;20204;-83
2021/05/08 03:54:05;;;;;;;4.23;2.37;;;1.40;99.90;;;;;;5061662;28;20663;-84
2021/05/08 03:56:31;;;;;;;3.50;2.83;;;1.50;99.90;;;;;;5062120;28;20185;-83
2021/05/08 03:58:57;;;;;;;2.80;2.40;;;1.40;99.90;;;;;;5062205;28;20661;-83
2021/05/08 04:01:24;;;;;;;3.57;2.60;;;1.50;99.90;;;;;;5063449;28;20435;-83
2021/05/08 04:03:49;;;;;;;3.20;2.90;;;1.50;99.90;;;;;;5080821;28;20197;-83
2021/05/08 04:06:15;;;;;;;4.53;2.67;;;1.50;99.90;;;;;;5080614;28;20414;-83
2021/05/08 04:08:41;;;;;;;3.33;3.03;;;1.50;99.90;;;;;;5062854;28;20263;-83
2021/05/08 04:11:06;;;;;;;3.70;2.83;;;1.50;99.90;;;;;;5063233;28;20196;-83
2021/05/08 04:13:32;;;;;;;3.30;2.83;;;1.50;99.90;;;;;;5062865;28;20176;-83
2021/05/08 04:15:58;;;;;;;3.10;2.50;;;1.50;99.90;;;;;;5080508;28;20207;-83
2021/05/08 04:18:23;;;;;;;5.17;2.40;;;1.60;99.90;;;;;;5062583;28;20177;-83
2021/05/08 04:20:49;;;;;;;3.50;2.83;;;1.70;99.90;;;;;;5062220;28;20215;-83
2021/05/08 04:23:15;;;;;;;5.60;2.87;;;1.60;99.90;;;;;;5079877;28;20161;-83
2021/05/08 04:25:41;;;;;;;2.80;2.50;;;1.80;99.90;;;;;;5080027;28;20275;-83
2021/05/08 04:28:10;;;;;;;3.43;2.13;;;1.90;99.90;;;;;;5062076;28;20185;-83
2021/05/08 04:30:37;;;;;;;3.93;2.60;;;1.80;99.90;;;;;;5062394;28;20470;-83
2021/05/08 04:33:03;;;;;;;3.67;2.73;;;1.90;99.90;;;;;;5062444;28;20772;-82
2021/05/08 04:35:29;;;;;;;3.63;3.23;;;1.90;99.90;;;;;;5061395;28;20482;-82
2021/05/08 04:38:01;;;;;;;4.37;2.63;;;2.00;99.90;;;;;;5061921;28;20446;-83
2021/05/08 04:40:27;;;;;;;2.50;2.30;;;2.00;99.90;;;;;;5061690;28;20232;-83
2021/05/08 04:42:52;;;;;;;3.80;2.60;;;2.10;99.90;;;;;;5061435;28;20422;-83
2021/05/08 04:45:18;;;;;;;4.53;2.10;;;2.20;99.90;;;;;;5061443;28;20200;-83
2021/05/08 04:47:44;;;;;;;3.30;3.00;;;2.20;99.90;;;;;;5061910;28;20176;-83
2021/05/08 04:50:10;;;;;;;2.47;2.20;;;2.20;99.90;;;;;;5079514;28;20220;-83
2021/05/08 04:52:36;;;;;;;3.30;3.00;;;2.30;99.90;;;;;;5061640;28;20196;-83
2021/05/08 04:55:01;;;;;;;3.20;2.40;;;2.30;99.90;;;;;;5079298;28;20422;-83
2021/05/08 04:57:27;;;;;;;4.83;2.60;;;2.30;99.90;;;;;;5079797;28;20634;-83
2021/05/08 04:59:52;;;;;;;3.63;2.60;;;2.40;99.90;;;;;;5061514;28;20208;-83
2021/05/08 05:02:18;;;;;;;3.60;2.80;;;2.30;99.90;;;;;;5061039;28;20180;-83
2021/05/08 05:04:44;;;;;;;2.97;2.37;;;2.30;99.90;;;;;;5078600;28;20247;-83
2021/05/08 05:07:09;;;;;;;3.93;2.50;;;2.50;99.90;;;;;;5060957;28;20177;-83
2021/05/08 05:09:35;;;;;;;3.67;2.40;;;2.40;99.90;;;;;;5079699;28;20504;-83
2021/05/08 05:12:01;;;;;;;2.40;2.20;;;2.40;99.90;;;;;;5078767;28;20247;-83
2021/05/08 05:14:27;;;;;;;3.17;2.30;;;2.60;99.90;;;;;;5078984;28;20523;-83
2021/05/08 05:16:53;;;;;;;4.37;2.50;;;2.60;99.90;;;;;;5060664;28;20180;-83
2021/05/08 05:19:18;;;;;;;2.40;2.20;;;2.60;99.90;;;;;;5060744;28;20933;-83
2021/05/08 05:21:44;;;;;;;3.47;2.33;;;2.60;99.90;;;;;;5060015;28;20756;-83
2021/05/08 05:24:11;;;;;;;2.50;2.30;;;2.70;99.90;;;;;;5060399;28;20196;-82
2021/05/08 05:26:37;;;;;;;2.20;2.00;;;2.80;99.90;;;;;;5060731;28;20206;-83
2021/05/08 05:29:03;;;;;;;2.67;2.27;;;2.90;99.90;;;;;;5060247;28;20412;-83
2021/05/08 05:31:28;;;;;;;2.93;2.60;;;3.00;99.90;;;;;;5060656;28;20204;-83
2021/05/08 05:33:54;;;;;;;2.97;2.40;;;3.00;99.90;;;;;;5079075;28;20588;-82
2021/05/08 05:36:19;;;;;;;5.27;2.50;;;3.10;99.90;;;;;;5060862;28;20271;-83
2021/05/08 05:38:45;;;;;;;5.30;2.30;;;3.40;99.90;;;;;;5060768;28;20187;-83
2021/05/08 05:41:11;;;;;;;3.20;2.30;;;3.40;99.90;;;;;;5078784;28;20594;-83
2021/05/08 05:43:36;;;;;;;2.10;1.90;;;3.40;99.90;;;;;;5078435;28;20172;-83
2021/05/08 05:46:02;;;;;;;2.63;2.43;;;3.50;99.90;;;;;;5078510;28;20205;-83
2021/05/08 05:48:28;;;;;;;2.27;2.07;;;3.60;99.90;;;;;;5060735;28;20176;-83
2021/05/08 05:50:53;;;;;;;2.67;2.47;;;3.60;99.90;;;;;;5079342;28;20797;-82
2021/05/08 05:53:19;;;;;;;2.30;2.10;;;3.70;99.90;;;;;;5060374;28;20181;-83
2021/05/08 05:55:45;;;;;;;2.40;2.20;;;3.80;99.90;;;;;;5078563;28;20638;-82
2021/05/08 05:58:11;;;;;;;3.20;2.20;;;3.80;99.90;;;;;;5060476;28;20184;-82
2021/05/08 06:00:36;;;;;;;2.93;2.00;;;3.90;99.90;;;;;;5078566;28;20621;-82
2021/05/08 06:03:02;;;;;;;2.23;2.03;;;4.00;99.90;;;;;;5060219;28;20188;-82
2021/05/08 06:05:27;;;;;;;3.80;1.93;;;4.20;99.90;;;;;;5059360;28;20299;-83
2021/05/08 06:07:53;;;;;;;2.80;2.17;;;4.30;99.90;;;;;;5077562;28;20252;-82
2021/05/08 06:10:19;;;;;;;1.77;1.67;;;4.30;99.90;;;;;;5058737;28;20192;-82
2021/05/08 06:12:45;;;;;;;1.83;1.73;;;4.40;99.90;;;;;;5058118;28;20659;-82
2021/05/08 06:15:11;;;;;;;2.50;1.83;;;4.60;99.90;;;;;;5076469;28;20540;-82
2021/05/08 06:17:37;;;;;;;1.80;1.70;;;4.70;99.90;;;;;;5058718;28;20200;-82
2021/05/08 06:20:05;;;;;;;2.33;2.13;;;4.80;99.90;;;;;;5078839;28;20948;-82
2021/05/08 06:22:31;;;;;;;3.03;1.97;;;4.80;99.90;;;;;;5063126;28;20805;-82
2021/05/08 06:24:57;;;;;;;2.03;1.83;;;4.90;99.90;;;;;;5062612;28;20454;-82
2021/05/08 06:27:23;;;;;;;3.43;2.07;;;5.00;99.90;;;;;;5061988;28;20423;-82
2021/05/08 06:29:49;;;;;;;2.03;1.83;;;5.10;99.90;;;;;;5061615;28;20188;-82
2021/05/08 06:32:15;;;;;;;3.43;2.30;;;5.10;99.90;;;;;;5061309;28;20438;-82
2021/05/08 06:34:40;;;;;;;3.63;2.00;;;5.50;99.90;;;;;;5078649;28;20415;-82
2021/05/08 06:37:06;;;;;;;2.57;1.93;;;5.60;99.90;;;;;;5078901;28;20176;-82
2021/05/08 06:39:32;;;;;;;2.20;1.80;;;5.80;99.90;;;;;;5070053;28;20181;-82
2021/05/08 06:41:58;;;;;;;4.33;2.20;;;6.00;99.90;;;;;;5082112;28;20216;-81
2021/05/08 06:44:25;;;;;;;5.33;3.23;;;6.20;99.90;;;;;;5085253;28;20206;-83
2021/05/08 06:46:52;;;;;;;9.73;6.47;;;6.40;99.90;;;;;;5099030;28;20165;-83
2021/05/08 06:49:18;;;;;;;3.40;2.60;;;6.60;99.90;;;;;;5084541;28;20414;-83
2021/05/08 06:51:44;;;;;;;9.53;5.20;;;6.80;99.90;;;;;;5066385;28;20438;-82
2021/05/08 06:54:09;;;;;;;9.03;6.10;;;6.90;99.90;;;;;;5066376;28;20181;-83
2021/05/08 06:56:35;;;;;;;6.50;5.10;;;7.10;99.90;;;;;;5065086;28;20635;-83
2021/05/08 06:59:01;;;;;;;5.67;3.77;;;7.30;99.90;;;;;;5065711;28;20639;-83
2021/05/08 07:01:26;;;;;;;4.13;2.07;;;7.50;99.90;;;;;;5066230;28;20200;-83
2021/05/08 07:03:52;;;;;;;3.10;2.77;;;7.70;99.90;;;;;;5080141;28;20185;-83
2021/05/08 07:06:17;;;;;;;2.47;2.27;;;7.80;99.90;;;;;;5060809;28;20623;-83
2021/05/08 07:08:43;;;;;;;2.20;2.00;;;8.00;99.90;;;;;;5065605;28;20182;-83
2021/05/08 07:11:09;;;;;;;2.63;2.43;;;8.10;99.90;;;;;;5065871;28;20263;-82
2021/05/08 07:13:34;;;;;;;2.23;1.90;;;8.20;99.90;;;;;;5065923;28;20579;-82
2021/05/08 07:16:00;;;;;;;2.00;1.70;;;8.20;99.90;;;;;;5066402;28;20583;-83
2021/05/08 07:18:26;;;;;;;2.53;2.03;;;8.30;99.90;;;;;;5065964;28;20192;-84
2021/05/08 07:20:52;;;;;;;2.73;2.53;;;8.50;99.90;;;;;;5066833;28;20212;-84
2021/05/08 07:23:18;;;;;;;2.17;1.60;;;8.80;99.90;;;;;;5085313;28;20210;-83
2021/05/08 07:25:44;;;;;;;2.63;1.80;;;9.00;99.90;;;;;;5064342;28;20200;-82
2021/05/08 07:28:20;;;;;;;3.33;2.30;;;9.10;99.90;;;;;;5065231;28;20176;-82
2021/05/08 07:30:48;;;;;;;2.00;1.50;;;9.30;99.90;;;;;;5064590;28;20223;-81
2021/05/08 07:33:15;;;;;;;3.40;3.10;;;9.50;99.90;;;;;;5066490;28;20180;-82
2021/05/08 07:35:42;;;;;;;3.90;2.47;;;9.60;99.90;;;;;;5083496;28;20198;-82
2021/05/08 07:38:08;;;;;;;3.63;3.30;;;9.60;99.90;;;;;;5061066;28;20193;-82
2021/05/08 07:40:35;;;;;;;7.43;3.97;;;9.70;99.90;;;;;;5062191;28;20204;-81
2021/05/08 07:43:02;;;;;;;2.87;2.57;;;9.80;99.90;;;;;;5080617;28;20622;-81
2021/05/08 07:45:29;;;;;;;3.40;1.83;;;9.90;99.90;;;;;;5062497;28;20205;-81
2021/05/08 07:47:55;;;;;;;1.77;1.40;;;10.10;99.90;;;;;;5062715;28;20181;-82
2021/05/08 07:50:21;;;;;;;1.33;1.00;;;10.40;99.90;;;;;;5080651;28;20189;-82
2021/05/08 07:52:47;;;;;;;3.27;2.10;;;10.60;99.50;;;;;;5064087;28;20637;-83
2021/05/08 07:55:13;;;;;;;3.53;2.80;;;10.70;98.50;;;;;;5065241;28;20173;-83
2021/05/08 07:57:39;;;;;;;2.07;1.60;;;11.00;97.90;;;;;;5064755;28;20231;-83
2021/05/08 08:00:07;;;;;;;1.90;1.70;;;11.50;96.70;;;;;;5064424;28;20207;-82
2021/05/08 08:02:33;;;;;;;2.50;2.30;;;12.30;96.40;;;;;;5082722;28;20173;-81
2021/05/08 08:04:59;;;;;;;2.27;1.47;;;13.00;93.50;;;;;;5082367;28;20275;-83
2021/05/08 08:07:24;;;;;;;2.00;1.07;;;14.20;91.80;;;;;;5082420;28;20286;-83
2021/05/08 08:09:50;;;;;;;0.93;0.77;;;14.70;81.70;;;;;;5065099;28;20180;-83
2021/05/08 08:12:16;;;;;;;1.00;0.90;;;15.20;72.50;;;;;;5062926;28;20638;-84
2021/05/08 08:14:41;;;;;;;1.47;0.90;;;15.30;71.00;;;;;;5063188;28;20191;-82
2021/05/08 08:17:07;;;;;;;1.93;0.77;;;15.20;77.50;;;;;;5065443;28;20235;-82
2021/05/08 08:19:33;;;;;;;1.50;1.07;;;15.30;70.80;;;;;;5083614;28;20540;-82
2021/05/08 08:21:59;;;;;;;1.50;0.93;;;15.80;71.60;;;;;;5083020;28;20732;-82
2021/05/08 08:24:25;;;;;;;3.17;0.90;;;16.50;68.80;;;;;;5065032;28;20223;-82
2021/05/08 08:26:51;;;;;;;2.77;1.00;;;17.10;70.10;;;;;;5064419;28;20173;-82
2021/05/08 08:29:17;;;;;;;1.50;0.80;;;17.40;70.40;;;;;;5065183;28;20177;-83
2021/05/08 08:31:43;;;;;;;1.40;1.30;;;17.40;63.00;;;;;;5065252;28;20208;-82
2021/05/08 08:34:09;;;;;;;1.90;0.83;;;17.40;62.80;;;;;;5065536;28;20203;-82
2021/05/08 08:36:35;;;;;;;1.20;1.00;;;17.60;63.00;;;;;;5064507;28;20185;-83
2021/05/08 08:39:01;;;;;;;1.53;1.00;;;17.70;64.00;;;;;;5083893;28;20177;-83
2021/05/08 08:41:27;;;;;;;2.03;1.03;;;17.30;58.80;;;;;;5083493;28;20196;-83
2021/05/08 08:43:53;;;;;;;1.20;1.10;;;16.90;65.20;;;;;;5066487;28;20196;-83
2021/05/08 08:46:19;;;;;;;1.83;1.20;;;17.20;59.10;;;;;;5065696;28;20660;-83
2021/05/08 08:48:45;;;;;;;1.27;0.90;;;17.30;59.70;;;;;;5065732;28;20201;-81
2021/05/08 08:51:14;;;;;;;0.87;0.87;;;17.20;61.30;;;;;;5064722;28;20225;-83
2021/05/08 08:53:39;;;;;;;2.10;0.90;;;17.90;66.00;;;;;;5066054;28;20185;-82
2021/05/08 08:56:06;;;;;;;2.87;1.23;;;17.90;60.50;;;;;;5066369;28;20536;-83
2021/05/08 08:58:35;;;;;;;3.77;1.03;;;17.90;59.40;;;;;;5085723;28;20188;-82
2021/05/08 09:01:03;;;;;;;1.50;1.00;;;17.70;60.60;;;;;;5067993;28;20228;-83
2021/05/08 09:03:29;;;;;;;3.00;1.00;;;17.60;69.90;;;;;;5083643;28;20169;-84
2021/05/08 09:05:54;;;;;;;1.40;1.20;;;17.70;63.10;;;;;;5084413;28;20291;-83
2021/05/08 09:08:20;;;;;;;1.20;1.10;;;18.20;61.80;;;;;;5066945;28;20202;-83
2021/05/08 09:10:46;;;;;;;1.33;0.80;;;18.00;61.40;;;;;;5064566;28;20203;-82
2021/05/08 09:13:17;;;;;;;3.07;1.30;;;17.50;59.80;;;;;;5078469;28;20174;-82
2021/05/08 09:15:46;;;;;;;2.27;1.00;;;17.40;61.60;;;;;;5060113;28;20189;-81
2021/05/08 09:18:38;;;;;;;1.43;1.10;;;17.40;59.80;;;;;;5060193;28;20649;-82
2021/05/08 09:21:06;;;;;;;1.20;0.90;;;17.10;61.40;;;;;;5060422;28;20220;-82
2021/05/08 09:23:33;;;;;;;1.07;0.80;;;16.90;59.10;;;;;;5078894;28;20539;-81
2021/05/08 09:26:05;;;;;;;1.60;1.10;;;16.70;59.70;;;;;;5059420;28;20206;-82
2021/05/08 09:28:37;;;;;;;8.80;1.30;;;17.00;71.70;;;;;;5077629;28;20494;-82
2021/05/08 09:31:04;;;;;;;2.00;0.93;;;17.10;63.70;;;;;;5059579;28;20540;-83
2021/05/08 09:33:30;;;;;;;2.23;1.00;;;16.90;66.50;;;;;;5059680;28;20267;-82
2021/05/08 09:36:10;;;;;;;2.07;1.13;;;17.00;62.90;;;;;;5076817;28;20181;-82
2021/05/08 09:38:40;;;;;;;2.40;1.00;;;17.30;67.90;;;;;;5077833;28;20166;-82
2021/05/08 09:41:10;;;;;;;0.90;0.80;;;17.50;64.80;;;;;;5062114;28;20206;-82
2021/05/08 09:43:37;;;;;;;1.10;0.90;;;17.60;64.00;;;;;;5086740;28;20204;-82
2021/05/08 09:46:03;;;;;;;2.37;0.80;;;17.60;62.20;;;;;;5095388;28;20230;-83
2021/05/08 09:48:35;;;;;;;1.60;1.03;;;17.60;57.60;;;;;;5080519;28;20231;-80
2021/05/08 09:51:15;;;;;;;1.03;0.90;;;17.10;60.50;;;;;;5091015;28;20200;-79
2021/05/08 09:53:40;;;;;;;1.00;0.80;;;16.60;60.50;;;;;;5078188;28;20179;-79
2021/05/08 09:56:26;;;;;;;2.17;1.10;;;16.70;60.50;;;;;;5078764;28;20179;-79
2021/05/08 09:58:52;;;;;;;1.50;1.00;;;17.10;63.40;;;;;;5078678;28;20685;-79
2021/05/08 10:01:18;;;;;;;1.30;1.00;;;17.10;58.40;;;;;;5079458;28;20319;-79
2021/05/08 10:03:44;;;;;;;1.17;0.80;;;17.10;64.10;;;;;;5060978;28;20654;-80
2021/05/08 10:06:11;;;;;;;0.97;0.90;;;17.60;60.10;;;;;;5078804;28;20172;-79
2021/05/08 10:08:36;;;;;;;1.37;0.80;;;17.30;58.60;;;;;;5059856;28;20188;-79
2021/05/08 10:11:03;;;;;;;1.03;0.77;;;17.40;57.90;;;;;;5058664;28;20294;-79
2021/05/08 10:13:32;;;;;;;2.17;2.00;;;17.80;60.60;;;;;;5059716;28;20710;-79
2021/05/08 10:15:59;;;;;;;1.10;1.00;;;16.70;59.60;;;;;;5078499;28;20651;-79
2021/05/08 10:18:25;;;;;;;1.10;0.90;;;16.10;60.50;;;;;;5058933;28;20191;-79
2021/05/08 10:20:53;;;;;;;1.47;0.60;;;16.10;60.90;;;;;;5058754;28;20216;-79
2021/05/08 10:23:20;;;;;;;0.80;0.50;;;16.50;60.40;;;;;;5059761;28;20181;-82
2021/05/08 10:25:47;;;;;;;0.73;0.50;;;16.80;58.40;;;;;;5064029;28;20204;-83
2021/05/08 10:28:12;;;;;;;2.50;1.00;;;17.20;60.30;;;;;;5065355;28;20182;-82
2021/05/08 10:30:39;;;;;;;0.70;0.60;;;17.60;57.40;;;;;;5083449;28;20243;-82
2021/05/08 10:33:10;;;;;;;0.80;0.80;;;18.10;56.20;;;;;;5064603;28;20181;-82
2021/05/08 10:35:47;;;;;;;1.30;0.80;;;18.30;55.90;;;;;;5065165;28;20194;-82
2021/05/08 10:38:22;;;;;;;1.10;0.70;;;18.40;56.80;;;;;;5065408;28;20182;-82
2021/05/08 10:41:01;;;;;;;3.93;1.20;;;18.40;56.00;;;;;;5064537;28;20200;-82
2021/05/08 10:43:48;;;;;;;1.10;1.00;;;18.00;57.80;;;;;;5082639;28;20179;-83
2021/05/08 10:46:16;;;;;;;2.90;1.30;;;17.70;58.40;;;;;;5066564;28;20211;-83
2021/05/08 10:49:04;;;;;;;1.57;1.40;;;17.90;60.40;;;;;;5066821;28;20173;-84
2021/05/08 10:51:58;;;;;;;2.23;2.00;;;18.00;58.90;;;;;;5065550;28;20255;-84
2021/05/08 10:54:43;;;;;;;1.90;0.70;;;18.10;53.50;;;;;;5064233;28;20180;-87
2021/05/08 10:57:28;;;;;;;0.80;0.80;;;18.20;54.20;;;;;;5066653;28;20187;-84
2021/05/08 11:00:03;;;;;;;0.97;0.73;;;18.60;53.00;;;;;;5066578;28;20177;-85
2021/05/08 11:02:43;;;;;;;0.87;0.83;;;18.60;53.90;;;;;;5063381;28;20180;-85
2021/05/08 11:05:22;;;;;;;1.03;0.80;;;18.50;54.90;;;;;;5061990;28;20208;-83
2021/05/08 11:07:48;;;;;;;1.00;0.90;;;18.50;55.50;;;;;;5084666;28;20172;-83
2021/05/08 11:10:32;;;;;;;1.27;0.60;;;19.00;56.70;;;;;;5066044;28;20650;-83
2021/05/08 11:13:07;;;;;;;1.63;1.40;;;19.10;56.00;;;;;;5064881;28;20173;-83
2021/05/08 11:15:51;;;;;;;1.70;0.87;;;19.40;57.20;;;;;;5064222;28;20189;-84
2021/05/08 11:18:35;;;;;;;0.80;0.80;;;19.60;56.80;;;;;;5083940;28;20236;-84
2021/05/08 11:21:02;;;;;;;1.10;1.00;;;19.60;55.80;;;;;;5066630;28;20226;-81
2021/05/08 11:23:59;;;;;;;1.53;1.03;;;19.90;58.00;;;;;;5063286;28;20200;-82
2021/05/08 11:29:00;;;;;;;3.30;3.00;;;20.20;48.40;;;;;;5080962;28;20181;-82
2021/05/08 11:31:36;;;;;;;2.80;2.50;;;19.40;46.50;;;;;;5081141;28;20248;-82
2021/05/08 11:34:19;;;;;;;4.70;4.20;;;19.70;50.00;;;;;;5064139;28;20189;-82
2021/05/08 11:37:01;;;;;;;5.20;3.30;;;20.50;51.70;;;;;;5065998;28;20177;-81
2021/05/08 11:39:29;;;;;;;0.87;0.60;;;20.80;48.50;;;;;;5068621;28;20678;-81
2021/05/08 11:42:00;;;;;;;0.83;0.83;;;21.20;51.60;;;;;;5067813;28;20207;-82
2021/05/08 11:44:35;;;;;;;1.37;0.67;;;21.70;51.00;;;;;;5065688;28;20204;-83
2021/05/08 11:49:57;;;;;;;5.77;3.87;;;21.90;47.40;;;;;;5085648;28;20161;-81
2021/05/08 11:52:49;;;;;;;3.17;1.97;;;21.80;44.70;;;;;;5086526;28;20169;-80
2021/05/08 11:55:20;;;;;;;4.97;3.13;;;20.90;45.30;;;;;;5065845;28;20197;-80
2021/05/08 11:57:52;;;;;;;0.93;0.80;;;20.60;45.90;;;;;;5083415;28;20641;-81
2021/05/08 12:00:20;;;;;;;1.50;0.60;;;20.50;47.50;;;;;;5063888;28;20202;-79
2021/05/08 12:02:47;;;;;;;0.83;0.60;;;20.40;48.20;;;;;;5062884;28;20182;-81
2021/05/08 12:05:13;;;;;;;0.70;0.70;;;20.50;43.70;;;;;;5060678;28;20201;-80
2021/05/08 12:07:41;;;;;;;0.77;0.50;;;21.00;49.40;;;;;;5062359;28;20180;-81
2021/05/08 12:10:22;;;;;;;1.20;0.90;;;21.90;47.30;;;;;;5062774;28;20197;-81
2021/05/08 12:12:51;;;;;;;0.70;0.70;;;22.20;46.80;;;;;;5080258;28;20201;-82
2021/05/08 12:15:25;;;;;;;1.20;0.70;;;22.60;47.30;;;;;;5061677;28;20180;-82
2021/05/08 12:17:52;;;;;;;1.00;0.80;;;22.80;42.50;;;;;;5062334;28;20167;-82
2021/05/08 12:20:19;;;;;;;0.83;0.60;;;22.80;41.90;;;;;;5081714;28;20533;-81
2021/05/08 12:22:46;;;;;;;2.37;0.70;;;22.50;40.50;;;;;;5081803;28;20174;-81
2021/05/08 12:25:20;;;;;;;0.77;0.63;;;22.20;41.30;;;;;;5064252;28;20326;-81
2021/05/08 12:27:46;;;;;;;1.03;0.70;;;22.50;43.20;;;;;;5081447;28;20202;-81
2021/05/08 12:30:14;;;;;;;0.90;0.60;;;23.40;41.80;;;;;;5063877;28;20238;-81
2021/05/08 12:32:51;;;;;;;2.30;0.80;;;23.40;44.00;;;;;;5063582;28;20174;-82
2021/05/08 12:35:19;;;;;;;0.77;0.60;;;24.00;42.20;;;;;;5063980;28;20182;-81
2021/05/08 12:37:45;;;;;;;1.17;0.90;;;23.30;40.40;;;;;;5062848;28;20365;-80
2021/05/08 12:40:11;;;;;;;2.00;0.97;;;22.70;39.80;;;;;;5080830;28;20603;-80
2021/05/08 12:42:44;;;;;;;1.30;0.67;;;22.70;41.00;;;;;;5061932;28;20180;-81
2021/05/08 12:45:10;;;;;;;1.10;0.50;;;23.10;39.30;;;;;;5061866;28;20198;-80
2021/05/08 12:47:40;;;;;;;0.50;0.50;;;22.70;38.50;;;;;;5060941;28;20215;-80
2021/05/08 12:50:10;;;;;;;2.77;1.10;;;23.30;40.00;;;;;;5061274;28;20231;-80
2021/05/08 12:52:58;;;;;;;3.77;2.70;;;23.80;39.30;;;;;;5079497;28;20153;-79
2021/05/08 12:55:35;;;;;;;1.00;0.90;;;23.40;40.00;;;;;;5061547;28;20267;-80
2021/05/08 12:58:11;;;;;;;2.00;1.20;;;23.40;40.50;;;;;;5061740;28;20610;-80
2021/05/08 13:00:50;;;;;;;1.27;1.00;;;23.90;41.20;;;;;;5063628;28;20278;-80